Time;durP1;ratioP1;P1;durP2;ratioP2;P2;SDS_P1;SDS_P2;PMS_P1;PMS_P2;Temp;Humidity;BMP_temperature;BMP_pressure;BME280_temperature;BME280_humidity;BME280_pressure;Samples;Min_cycle;Max_cycle;Signal;HPM_P1;HPM_P2
2023/02/21 02:16:38;;;;;;;3.53;2.30;;;17.60;50.90;;;;;;5012665;28;20445;-67
2023/02/21 02:19:35;;;;;;;3.87;2.30;;;17.60;50.90;;;;;;5014091;28;20423;-67
2023/02/21 02:22:06;;;;;;;2.83;2.57;;;17.60;50.90;;;;;;5014339;28;20498;-68
2023/02/21 02:24:45;;;;;;;3.50;2.20;;;17.60;50.90;;;;;;5013867;28;20560;-68
2023/02/21 02:27:44;;;;;;;3.30;2.10;;;17.60;50.90;;;;;;5013950;28;20835;-67
2023/02/21 02:30:29;;;;;;;3.93;2.77;;;17.60;50.90;;;;;;5013641;28;20427;-67
2023/02/21 02:33:25;;;;;;;4.30;2.37;;;17.60;50.90;;;;;;5013927;28;20404;-67
2023/02/21 02:36:04;;;;;;;3.37;2.13;;;17.60;50.90;;;;;;5013578;28;20403;-67
2023/02/21 02:38:37;;;;;;;2.03;1.83;;;17.60;50.90;;;;;;5013566;28;20388;-67
2023/02/21 02:41:15;;;;;;;3.20;1.63;;;17.50;50.80;;;;;;5013278;28;20431;-67
2023/02/21 02:43:57;;;;;;;3.50;2.20;;;17.50;50.80;;;;;;5012189;28;20514;-67
2023/02/21 02:46:30;;;;;;;2.40;2.03;;;17.50;50.70;;;;;;5013452;28;20857;-67
2023/02/21 02:49:05;;;;;;;2.63;1.93;;;17.50;50.70;;;;;;5013284;28;20998;-67
2023/02/21 02:51:33;;;;;;;3.13;1.90;;;17.60;50.80;;;;;;5012093;28;21076;-67
2023/02/21 02:53:58;;;;;;;3.93;2.10;;;17.50;50.70;;;;;;5013437;28;20403;-64
2023/02/21 02:56:25;;;;;;;2.13;1.93;;;17.60;50.80;;;;;;5013800;28;20816;-64
2023/02/21 02:59:10;;;;;;;3.20;2.00;;;17.50;50.70;;;;;;5013591;28;20552;-64
2023/02/21 03:01:48;;;;;;;2.43;1.93;;;17.50;50.70;;;;;;5013508;28;20453;-64
2023/02/21 03:04:32;;;;;;;2.40;2.20;;;17.50;50.70;;;;;;5013558;28;20434;-64
2023/02/21 03:07:16;;;;;;;3.17;2.23;;;17.50;50.70;;;;;;5013775;28;20466;-64
2023/02/21 03:10:03;;;;;;;2.90;2.03;;;17.50;50.70;;;;;;5013553;28;20455;-64
2023/02/21 03:12:37;;;;;;;2.33;2.07;;;17.50;50.70;;;;;;5013914;28;20407;-64
2023/02/21 03:15:24;;;;;;;2.17;1.97;;;17.50;50.70;;;;;;5012919;28;20907;-64
2023/02/21 03:18:04;;;;;;;2.80;2.47;;;17.50;50.70;;;;;;5013391;28;20399;-64
2023/02/21 03:20:33;;;;;;;3.00;2.20;;;17.50;50.70;;;;;;5011880;28;20446;-64
2023/02/21 03:23:01;;;;;;;2.73;2.20;;;17.50;50.70;;;;;;5013641;28;21060;-64
2023/02/21 03:25:30;;;;;;;2.53;2.10;;;17.50;50.70;;;;;;5011982;28;20451;-64
2023/02/21 03:27:57;;;;;;;2.17;1.90;;;17.50;50.70;;;;;;5013404;28;20404;-64
2023/02/21 03:30:23;;;;;;;2.90;2.40;;;17.50;50.70;;;;;;5013484;28;20466;-64
2023/02/21 03:32:51;;;;;;;4.90;2.00;;;17.50;50.70;;;;;;5013458;28;20537;-64
2023/02/21 03:35:19;;;;;;;4.50;2.50;;;17.50;50.70;;;;;;5013234;28;20414;-64
2023/02/21 03:37:52;;;;;;;2.20;2.00;;;17.50;50.70;;;;;;5013203;28;20435;-64
2023/02/21 03:40:36;;;;;;;3.57;2.30;;;17.50;50.60;;;;;;5013134;28;20451;-64
2023/02/21 03:43:06;;;;;;;1.83;1.70;;;17.50;50.70;;;;;;5012921;28;20411;-64
2023/02/21 03:45:32;;;;;;;2.50;2.10;;;17.50;50.60;;;;;;5012363;28;20455;-65
2023/02/21 03:47:57;;;;;;;1.70;1.60;;;17.50;50.70;;;;;;5012527;28;20426;-65
2023/02/21 03:50:23;;;;;;;4.30;2.23;;;17.50;50.70;;;;;;5012256;28;20427;-65
2023/02/21 03:52:48;;;;;;;3.30;2.20;;;17.50;50.60;;;;;;5012614;28;20204;-65
2023/02/21 03:55:14;;;;;;;2.83;2.23;;;17.50;50.60;;;;;;5012400;28;20221;-65
2023/02/21 03:57:40;;;;;;;2.10;1.90;;;17.50;50.60;;;;;;5012357;28;20177;-65
2023/02/21 04:00:06;;;;;;;3.00;2.13;;;17.50;50.60;;;;;;5012197;28;20244;-65
2023/02/21 04:02:31;;;;;;;2.33;1.93;;;17.40;50.50;;;;;;5012339;28;20168;-65
2023/02/21 04:04:57;;;;;;;2.00;1.70;;;17.50;50.60;;;;;;5012148;28;20892;-65
2023/02/21 04:07:22;;;;;;;2.50;2.10;;;17.40;50.60;;;;;;5012182;28;20196;-65
2023/02/21 04:09:48;;;;;;;3.07;1.83;;;17.40;50.50;;;;;;5012341;28;20220;-65
2023/02/21 04:12:14;;;;;;;2.30;2.10;;;17.40;50.50;;;;;;5012259;28;20183;-65
2023/02/21 04:14:40;;;;;;;3.00;2.20;;;17.40;50.50;;;;;;5012154;28;20400;-65
2023/02/21 04:17:05;;;;;;;2.77;2.17;;;17.40;50.50;;;;;;5011910;28;20173;-65
2023/02/21 04:19:31;;;;;;;4.70;2.53;;;17.40;50.50;;;;;;5011862;28;20183;-65
2023/02/21 04:21:57;;;;;;;2.60;1.70;;;17.40;50.50;;;;;;5010655;28;20176;-65
2023/02/21 04:24:23;;;;;;;3.43;2.00;;;17.40;50.50;;;;;;5011775;28;20484;-65
2023/02/21 04:26:48;;;;;;;2.60;2.27;;;17.40;50.50;;;;;;5011098;28;20200;-65
2023/02/21 04:29:14;;;;;;;2.30;1.87;;;17.40;50.50;;;;;;5011810;28;20218;-65
2023/02/21 04:31:39;;;;;;;2.63;2.00;;;17.40;51.10;;;;;;5011843;28;20241;-65
2023/02/21 04:34:05;;;;;;;3.47;1.97;;;17.40;50.50;;;;;;5011671;28;20172;-65
2023/02/21 04:36:31;;;;;;;2.17;1.97;;;17.40;50.50;;;;;;5012874;28;20165;-64
2023/02/21 04:38:56;;;;;;;2.80;2.00;;;17.40;50.50;;;;;;5012350;28;20176;-64
2023/02/21 04:41:23;;;;;;;2.37;1.80;;;17.40;50.50;;;;;;5012195;28;20207;-64
2023/02/21 04:43:48;;;;;;;2.13;1.90;;;17.40;50.50;;;;;;5011097;28;20176;-64
2023/02/21 04:46:16;;;;;;;2.73;2.10;;;17.40;50.50;;;;;;5012026;28;20566;-64
2023/02/21 04:48:47;;;;;;;2.83;2.00;;;17.40;50.50;;;;;;5012412;28;20173;-64
2023/02/21 04:51:15;;;;;;;2.13;1.93;;;17.40;50.50;;;;;;5012197;28;20856;-64
2023/02/21 04:53:42;;;;;;;1.83;1.67;;;17.30;50.40;;;;;;5011819;28;20872;-64
2023/02/21 04:56:08;;;;;;;6.17;2.00;;;17.40;50.50;;;;;;5011730;28;20408;-64
2023/02/21 04:58:33;;;;;;;2.67;2.30;;;17.40;50.50;;;;;;5011813;28;20415;-64
2023/02/21 05:00:59;;;;;;;3.43;2.50;;;17.40;50.50;;;;;;5011485;28;20219;-64
2023/02/21 05:03:24;;;;;;;3.93;2.23;;;17.40;50.50;;;;;;5011850;28;20529;-64
2023/02/21 05:05:51;;;;;;;2.37;2.00;;;17.40;50.50;;;;;;5011533;28;20232;-64
2023/02/21 05:08:16;;;;;;;2.00;1.70;;;17.40;50.50;;;;;;5011663;28;20180;-64
2023/02/21 05:10:42;;;;;;;2.80;2.03;;;17.30;50.40;;;;;;5011740;28;20420;-64
2023/02/21 05:13:08;;;;;;;2.30;1.90;;;17.30;50.40;;;;;;5011753;28;20176;-64
2023/02/21 05:15:33;;;;;;;2.13;1.93;;;17.30;50.40;;;;;;5011701;28;20180;-64
2023/02/21 05:17:59;;;;;;;2.43;2.00;;;17.30;50.40;;;;;;5011477;28;20187;-64
2023/02/21 05:20:25;;;;;;;2.60;2.20;;;17.30;50.40;;;;;;5011513;28;20235;-64
2023/02/21 05:22:50;;;;;;;2.20;2.00;;;17.30;50.40;;;;;;5010229;28;20274;-64
2023/02/21 05:25:18;;;;;;;3.50;2.47;;;17.30;50.40;;;;;;5010085;28;20176;-64
2023/02/21 05:27:44;;;;;;;2.80;2.20;;;17.30;50.40;;;;;;5011312;28;20169;-64
2023/02/21 05:30:10;;;;;;;1.83;1.50;;;17.30;50.40;;;;;;5011711;28;20431;-64
2023/02/21 05:32:36;;;;;;;2.53;1.87;;;17.30;50.40;;;;;;5012239;28;20901;-64
2023/02/21 05:35:02;;;;;;;2.50;2.30;;;17.30;50.40;;;;;;5011558;28;20418;-64
2023/02/21 05:37:28;;;;;;;2.10;1.77;;;17.30;50.40;;;;;;5010933;28;20168;-64
2023/02/21 05:39:53;;;;;;;2.17;1.97;;;17.30;50.30;;;;;;5011195;28;20431;-64
2023/02/21 05:42:19;;;;;;;4.37;1.90;;;17.30;50.30;;;;;;5011367;28;20172;-64
2023/02/21 05:44:46;;;;;;;5.00;1.97;;;17.30;50.30;;;;;;5011251;28;20177;-64
2023/02/21 05:47:13;;;;;;;3.70;2.50;;;17.30;50.30;;;;;;5011070;28;20679;-64
2023/02/21 05:49:39;;;;;;;2.40;1.80;;;17.20;50.20;;;;;;5011231;28;20427;-64
2023/02/21 05:52:05;;;;;;;3.03;2.20;;;17.20;50.20;;;;;;5011038;28;20416;-64
2023/02/21 05:54:31;;;;;;;2.10;1.90;;;17.20;50.20;;;;;;5011173;28;20487;-64
2023/02/21 05:56:56;;;;;;;3.07;2.07;;;17.20;50.20;;;;;;5011117;28;20510;-64
2023/02/21 05:59:22;;;;;;;2.13;1.97;;;17.20;50.20;;;;;;5011177;28;20177;-64
2023/02/21 06:01:49;;;;;;;5.47;2.07;;;17.20;50.10;;;;;;5047031;23;20771;-67
2023/02/21 06:04:16;;;;;;;3.20;2.00;;;17.20;50.10;;;;;;5030479;28;20168;-68
2023/02/21 06:06:42;;;;;;;2.40;1.97;;;17.20;50.10;;;;;;5030506;28;20882;-67
2023/02/21 06:09:08;;;;;;;2.83;1.80;;;17.20;50.10;;;;;;5030285;28;20451;-67
2023/02/21 06:11:36;;;;;;;5.37;1.90;;;17.20;50.00;;;;;;5030180;28;20426;-67
2023/02/21 06:14:04;;;;;;;2.90;1.70;;;17.20;50.10;;;;;;5030495;28;20456;-68
2023/02/21 06:16:34;;;;;;;2.80;2.47;;;17.20;50.00;;;;;;5030487;28;20467;-67
2023/02/21 06:19:00;;;;;;;3.00;1.93;;;17.20;50.60;;;;;;5030533;28;20823;-67
2023/02/21 06:21:26;;;;;;;2.90;2.30;;;17.20;50.00;;;;;;5030253;28;20803;-68
2023/02/21 06:23:52;;;;;;;3.40;1.80;;;17.20;50.00;;;;;;5030159;28;20415;-67
2023/02/21 06:26:18;;;;;;;3.53;2.33;;;17.20;50.50;;;;;;5030225;28;20454;-67
2023/02/21 06:28:44;;;;;;;3.33;1.87;;;17.20;50.00;;;;;;5030222;28;20228;-67
2023/02/21 06:31:09;;;;;;;3.33;2.07;;;17.10;49.90;;;;;;5030191;28;20426;-67
2023/02/21 06:33:35;;;;;;;4.73;2.43;;;17.10;49.90;;;;;;5030251;28;20494;-67
2023/02/21 06:36:12;;;;;;;4.43;2.10;;;17.10;49.90;;;;;;5030171;28;20172;-67
2023/02/21 06:38:38;;;;;;;2.90;2.10;;;17.10;49.90;;;;;;5030205;28;20514;-68
2023/02/21 06:41:08;;;;;;;3.27;2.40;;;17.10;49.90;;;;;;5030050;28;20463;-67
2023/02/21 06:43:35;;;;;;;4.20;2.40;;;17.10;49.90;;;;;;5029987;28;20190;-67
2023/02/21 06:46:01;;;;;;;3.27;2.03;;;17.10;49.90;;;;;;5030135;28;20450;-67
2023/02/21 06:48:27;;;;;;;2.90;2.03;;;17.10;49.90;;;;;;5030002;28;20414;-67
2023/02/21 06:50:52;;;;;;;2.30;2.10;;;17.10;49.90;;;;;;5032983;28;20471;-67
2023/02/21 06:53:18;;;;;;;3.33;2.23;;;17.10;49.90;;;;;;5033385;28;20172;-68
2023/02/21 06:55:44;;;;;;;2.37;2.07;;;17.10;49.90;;;;;;5033302;28;20625;-67
2023/02/21 06:58:09;;;;;;;3.90;2.17;;;17.10;49.90;;;;;;5033015;28;20214;-67
2023/02/21 07:00:35;;;;;;;2.17;1.97;;;17.10;49.90;;;;;;5032870;28;20298;-67
2023/02/21 07:03:01;;;;;;;3.17;2.20;;;17.10;50.00;;;;;;5033425;28;20172;-67
2023/02/21 07:05:27;;;;;;;2.60;2.03;;;17.10;50.00;;;;;;5032758;28;20210;-68
2023/02/21 07:07:53;;;;;;;2.70;2.07;;;17.10;50.00;;;;;;5033196;28;20193;-67
2023/02/21 07:10:19;;;;;;;2.20;1.80;;;17.10;50.00;;;;;;5033091;28;20981;-67
2023/02/21 07:12:44;;;;;;;2.97;1.73;;;17.10;50.00;;;;;;5033092;28;20243;-67
2023/02/21 07:15:10;;;;;;;2.53;1.80;;;17.10;50.00;;;;;;5033128;28;20175;-67
2023/02/21 07:17:36;;;;;;;1.80;1.50;;;17.10;50.00;;;;;;5033475;28;20255;-67
2023/02/21 07:20:03;;;;;;;2.30;1.93;;;17.10;50.00;;;;;;5032745;28;20410;-67
2023/02/21 07:22:29;;;;;;;3.37;2.03;;;17.10;50.00;;;;;;5032526;28;20168;-67
2023/02/21 07:24:55;;;;;;;3.50;2.10;;;17.10;50.00;;;;;;5033467;28;20471;-67
2023/02/21 07:27:22;;;;;;;2.87;2.00;;;17.10;50.00;;;;;;5032688;28;20239;-67
2023/02/21 07:29:48;;;;;;;2.20;2.00;;;17.10;50.00;;;;;;5032711;28;20456;-67
2023/02/21 07:32:15;;;;;;;3.80;1.90;;;17.10;50.00;;;;;;5032686;28;20458;-67
2023/02/21 07:34:40;;;;;;;2.00;1.80;;;17.10;49.90;;;;;;5032621;28;20413;-67
2023/02/21 07:37:06;;;;;;;2.97;1.93;;;17.10;50.00;;;;;;5032446;28;20407;-67
2023/02/21 07:39:32;;;;;;;1.87;1.67;;;17.10;49.90;;;;;;5032317;28;20263;-67
2023/02/21 07:41:57;;;;;;;3.40;2.00;;;17.10;49.90;;;;;;5032546;28;20184;-68
2023/02/21 07:44:23;;;;;;;3.70;2.10;;;17.10;49.90;;;;;;5032450;28;20187;-67
2023/02/21 07:46:48;;;;;;;4.60;1.90;;;17.10;49.90;;;;;;5032624;28;20222;-68
2023/02/21 07:49:14;;;;;;;2.90;2.13;;;17.10;49.90;;;;;;5032384;28;20258;-67
2023/02/21 07:51:40;;;;;;;2.20;1.90;;;17.10;49.90;;;;;;5032117;28;20199;-67
2023/02/21 07:54:05;;;;;;;2.73;2.00;;;17.10;49.90;;;;;;5032172;28;20163;-67
2023/02/21 07:56:31;;;;;;;3.40;1.70;;;17.10;49.90;;;;;;5032120;28;20187;-67
2023/02/21 07:58:56;;;;;;;2.80;1.93;;;17.10;49.90;;;;;;5032288;28;20176;-67
2023/02/21 08:01:24;;;;;;;1.93;1.70;;;17.10;49.90;;;;;;5032007;28;20625;-67
2023/02/21 08:03:49;;;;;;;2.37;1.90;;;17.10;49.90;;;;;;5032667;28;20632;-67
2023/02/21 08:06:15;;;;;;;3.47;2.20;;;17.10;49.90;;;;;;5032093;28;20534;-67
2023/02/21 08:08:41;;;;;;;3.00;2.07;;;17.10;49.90;;;;;;5032183;28;20176;-67
2023/02/21 08:11:07;;;;;;;2.67;2.00;;;17.10;49.90;;;;;;5031845;28;20931;-67
2023/02/21 08:13:32;;;;;;;8.40;3.13;;;17.10;50.00;;;;;;5031969;28;20534;-67
2023/02/21 08:15:58;;;;;;;2.20;1.90;;;17.00;49.80;;;;;;5032209;28;20194;-68
2023/02/21 08:18:24;;;;;;;3.50;2.50;;;17.10;49.90;;;;;;5031968;28;20202;-67
2023/02/21 08:20:54;;;;;;;3.87;2.00;;;17.10;49.90;;;;;;5031789;28;20207;-68
2023/02/21 08:23:21;;;;;;;2.30;1.83;;;17.10;49.90;;;;;;5032139;28;20406;-67
2023/02/21 08:25:47;;;;;;;3.60;1.70;;;17.00;49.80;;;;;;5031685;28;20442;-68
2023/02/21 08:28:13;;;;;;;2.50;1.87;;;17.00;49.90;;;;;;5031657;28;20414;-67
2023/02/21 08:30:39;;;;;;;3.30;1.97;;;17.00;49.90;;;;;;5031642;28;20881;-68
2023/02/21 08:33:05;;;;;;;3.03;1.97;;;17.00;49.90;;;;;;5031869;28;20492;-67
2023/02/21 08:35:30;;;;;;;2.50;1.70;;;17.00;49.80;;;;;;5031734;28;20207;-68
2023/02/21 08:38:01;;;;;;;3.20;1.97;;;17.00;49.80;;;;;;5031855;28;20178;-68
2023/02/21 08:40:27;;;;;;;3.03;2.00;;;17.00;49.80;;;;;;5031433;28;20200;-68
2023/02/21 08:42:54;;;;;;;3.83;2.37;;;17.00;49.80;;;;;;5031289;28;20413;-66
2023/02/21 08:45:21;;;;;;;3.10;1.73;;;17.00;50.40;;;;;;5031201;28;20399;-68
2023/02/21 08:47:47;;;;;;;3.07;2.27;;;17.00;49.90;;;;;;5031526;28;20414;-68
2023/02/21 08:50:14;;;;;;;2.60;2.13;;;17.00;49.80;;;;;;5031349;28;20410;-68
2023/02/21 08:52:39;;;;;;;2.20;1.90;;;17.00;49.80;;;;;;5031398;28;20399;-67
2023/02/21 08:55:06;;;;;;;2.47;1.90;;;17.00;49.80;;;;;;5031334;28;20896;-73
2023/02/21 08:57:33;;;;;;;7.03;3.53;;;17.00;50.00;;;;;;5031267;28;20526;-69
2023/02/21 08:59:59;;;;;;;4.93;4.07;;;16.90;49.90;;;;;;5031131;28;20824;-70
2023/02/21 09:02:25;;;;;;;7.20;3.57;;;16.90;49.80;;;;;;5031448;28;20418;-70
2023/02/21 09:04:52;;;;;;;7.00;3.83;;;16.90;50.00;;;;;;5031130;28;20784;-67
2023/02/21 09:07:19;;;;;;;4.60;3.20;;;16.90;50.50;;;;;;5031100;28;20473;-67
2023/02/21 09:09:45;;;;;;;5.93;3.57;;;16.90;49.90;;;;;;5030967;28;20403;-68
2023/02/21 09:12:12;;;;;;;5.90;3.30;;;16.90;49.90;;;;;;5030451;28;21013;-68
2023/02/21 09:14:40;;;;;;;6.03;2.93;;;16.90;49.90;;;;;;5031210;28;20446;-68
2023/02/21 09:17:09;;;;;;;6.50;3.30;;;16.90;49.90;;;;;;5031040;28;20852;-67
2023/02/21 09:19:35;;;;;;;4.93;2.80;;;16.90;49.90;;;;;;5030830;28;20506;-67
2023/02/21 09:22:03;;;;;;;3.63;3.20;;;16.90;49.90;;;;;;5031063;28;20514;-68
2023/02/21 09:24:28;;;;;;;9.60;4.33;;;16.90;49.90;;;;;;5030957;28;20195;-68
2023/02/21 09:27:02;;;;;;;4.00;2.50;;;17.00;49.90;;;;;;5030774;28;20822;-67
2023/02/21 09:29:32;;;;;;;3.70;2.83;;;17.00;49.90;;;;;;5030892;28;20180;-68
2023/02/21 09:31:59;;;;;;;5.10;2.97;;;16.90;49.80;;;;;;5030693;28;20951;-68
2023/02/21 09:34:25;;;;;;;2.60;2.33;;;17.00;49.90;;;;;;5030764;28;20418;-68
2023/02/21 09:36:50;;;;;;;4.70;3.00;;;17.00;49.90;;;;;;5029267;28;20505;-68
2023/02/21 09:39:17;;;;;;;4.80;3.00;;;17.00;49.90;;;;;;5030599;28;20179;-68
2023/02/21 09:41:44;;;;;;;5.30;3.27;;;17.00;49.90;;;;;;5030461;28;20759;-68
2023/02/21 09:44:15;;;;;;;2.87;2.57;;;17.00;49.90;;;;;;5030796;28;20415;-68
2023/02/21 09:46:47;;;;;;;2.83;2.23;;;17.00;49.90;;;;;;5030786;28;20458;-67
2023/02/21 09:49:21;;;;;;;3.70;2.47;;;17.00;49.90;;;;;;5030906;28;20415;-68
2023/02/21 09:51:49;;;;;;;3.20;2.40;;;17.00;49.90;;;;;;5030685;28;20438;-68
2023/02/21 09:54:31;;;;;;;3.40;2.43;;;17.00;49.90;;;;;;5029513;28;20498;-67
2023/02/21 09:57:00;;;;;;;4.33;2.90;;;17.00;49.90;;;;;;5030644;28;20508;-68
2023/02/21 09:59:25;;;;;;;3.67;2.60;;;17.10;49.90;;;;;;5030536;28;20414;-67
2023/02/21 10:02:09;;;;;;;3.70;2.80;;;17.10;49.90;;;;;;5030302;28;20485;-67
2023/02/21 10:04:56;;;;;;;5.37;2.20;;;17.10;49.90;;;;;;5031018;28;20629;-67
2023/02/21 10:07:36;;;;;;;5.63;2.63;;;17.10;49.90;;;;;;5030368;28;20486;-68
2023/02/21 10:10:20;;;;;;;3.27;2.30;;;17.10;49.90;;;;;;5030267;28;20429;-68
2023/02/21 10:13:02;;;;;;;2.67;2.13;;;17.10;50.50;;;;;;5030392;28;20976;-67
2023/02/21 10:15:31;;;;;;;3.40;1.97;;;17.10;49.90;;;;;;5030381;28;20395;-69
2023/02/21 10:18:23;;;;;;;3.17;2.47;;;17.10;49.90;;;;;;5030567;28;20903;-68
2023/02/21 10:20:53;;;;;;;4.13;2.40;;;17.10;49.90;;;;;;5030493;28;20426;-68
2023/02/21 10:23:27;;;;;;;3.90;2.43;;;17.10;50.10;;;;;;5030094;28;20407;-67
2023/02/21 10:25:58;;;;;;;4.03;2.27;;;17.10;50.00;;;;;;5033612;28;20487;-68
2023/02/21 10:28:25;;;;;;;3.00;2.20;;;17.10;50.00;;;;;;5033688;28;20419;-68
2023/02/21 10:30:57;;;;;;;3.00;2.37;;;17.10;50.00;;;;;;5033521;28;20434;-68
2023/02/21 10:33:23;;;;;;;3.57;2.20;;;17.20;50.00;;;;;;5033756;28;20444;-67
2023/02/21 10:35:48;;;;;;;3.50;2.17;;;17.20;50.00;;;;;;5033511;28;20446;-68
2023/02/21 10:38:22;;;;;;;3.40;2.27;;;17.20;50.00;;;;;;5033444;28;20176;-67
2023/02/21 10:41:01;;;;;;;4.53;2.53;;;17.20;50.00;;;;;;5033201;28;20196;-68
2023/02/21 10:43:47;;;;;;;3.57;2.20;;;17.20;50.10;;;;;;5033229;28;20800;-67
2023/02/21 10:46:16;;;;;;;4.23;2.50;;;17.20;50.40;;;;;;5033007;28;20510;-67
2023/02/21 10:48:43;;;;;;;2.97;2.03;;;17.20;50.40;;;;;;5032825;28;20493;-66
2023/02/21 10:51:10;;;;;;;3.10;2.30;;;17.20;50.40;;;;;;5032753;28;20458;-66
2023/02/21 10:53:41;;;;;;;3.30;2.60;;;17.20;50.50;;;;;;5032924;28;20471;-67
2023/02/21 10:56:18;;;;;;;2.70;2.10;;;17.20;50.30;;;;;;5032974;28;20414;-67
2023/02/21 10:58:45;;;;;;;2.30;2.10;;;17.30;50.30;;;;;;5032523;28;20473;-68
2023/02/21 11:01:13;;;;;;;3.37;2.37;;;17.30;50.30;;;;;;5032290;28;20493;-67
2023/02/21 11:03:47;;;;;;;3.07;2.40;;;17.30;50.30;;;;;;5032488;28;20411;-69
2023/02/21 11:06:23;;;;;;;4.23;2.33;;;17.30;50.30;;;;;;5032534;28;20473;-67
2023/02/21 11:08:49;;;;;;;3.33;2.43;;;17.30;50.30;;;;;;5032538;28;20402;-67
2023/02/21 11:11:15;;;;;;;2.63;2.10;;;17.30;50.20;;;;;;5032313;28;20919;-67
2023/02/21 11:13:41;;;;;;;3.60;2.17;;;17.30;50.20;;;;;;5032360;28;20264;-67
2023/02/21 11:16:15;;;;;;;2.63;2.40;;;17.30;50.10;;;;;;5032527;28;20183;-67
2023/02/21 11:18:40;;;;;;;3.00;2.47;;;17.40;50.20;;;;;;5032175;28;20469;-68
2023/02/21 11:21:12;;;;;;;3.50;2.73;;;17.40;50.20;;;;;;5032328;28;20503;-71
2023/02/21 11:24:01;;;;;;;4.00;2.60;;;17.40;50.50;;;;;;5032567;28;20184;-72
2023/02/21 11:26:29;;;;;;;4.93;1.83;;;17.40;50.80;;;;;;5032258;28;20462;-71
2023/02/21 11:29:04;;;;;;;3.43;2.00;;;17.50;51.00;;;;;;5032231;28;20414;-71
2023/02/21 11:31:31;;;;;;;3.90;2.40;;;17.50;51.10;;;;;;5032374;28;20461;-72
2023/02/21 11:34:03;;;;;;;2.70;1.80;;;17.60;51.30;;;;;;5032028;28;20450;-72
2023/02/21 11:36:31;;;;;;;4.27;1.90;;;17.60;51.30;;;;;;5031545;28;20406;-70
2023/02/21 11:39:22;;;;;;;9.57;2.67;;;17.70;51.40;;;;;;5031885;28;20468;-70
2023/02/21 11:41:56;;;;;;;25.50;4.60;;;17.70;51.50;;;;;;5031652;28;20965;-68
2023/02/21 11:44:26;;;;;;;20.17;5.30;;;17.80;51.80;;;;;;5031915;28;20849;-68
2023/02/21 11:47:27;;;;;;;10.63;3.17;;;17.90;51.90;;;;;;5031826;28;20974;-70
2023/02/21 11:50:17;;;;;;;15.17;4.40;;;17.90;51.50;;;;;;5031889;28;20414;-70
2023/02/21 11:52:51;;;;;;;18.80;4.00;;;18.00;51.40;;;;;;5030630;28;20428;-69
2023/02/21 11:55:19;;;;;;;13.50;3.70;;;18.00;51.30;;;;;;5032316;28;20507;-70
2023/02/21 11:58:09;;;;;;;12.53;3.67;;;18.10;51.30;;;;;;5032323;28;20415;-70
2023/02/21 12:01:04;;;;;;;10.70;3.50;;;18.10;51.30;;;;;;5030517;28;20951;-70
2023/02/21 12:03:39;;;;;;;13.90;3.30;;;18.20;51.30;;;;;;5031919;28;20423;-70
2023/02/21 12:06:36;;;;;;;6.33;3.03;;;18.20;51.20;;;;;;5031578;28;20930;-70
2023/02/21 12:09:17;;;;;;;8.33;2.60;;;18.30;51.30;;;;;;5024019;28;20514;-70
2023/02/21 12:11:51;;;;;;;9.93;2.60;;;18.40;51.40;;;;;;5030541;28;20430;-70
2023/02/21 12:14:29;;;;;;;9.53;2.33;;;18.40;51.30;;;;;;5031794;28;20407;-69
2023/02/21 12:17:37;;;;;;;6.93;2.90;;;18.40;51.20;;;;;;5031897;28;20411;-70
2023/02/21 12:20:30;;;;;;;3.83;2.20;;;18.50;51.10;;;;;;5031858;28;20418;-69
2023/02/21 12:23:10;;;;;;;6.97;2.77;;;18.50;51.10;;;;;;5031871;28;20410;-70
2023/02/21 12:25:50;;;;;;;5.43;2.20;;;18.60;51.00;;;;;;5031485;28;20494;-69
2023/02/21 12:28:51;;;;;;;3.57;3.10;;;18.60;50.90;;;;;;5031996;28;20452;-69
2023/02/21 12:31:25;;;;;;;4.30;2.30;;;18.60;50.70;;;;;;4990374;28;20933;-70
2023/02/21 12:34:12;;;;;;;3.20;2.47;;;18.60;50.70;;;;;;5025957;28;20503;-66
2023/02/21 12:37:04;;;;;;;4.37;2.40;;;18.60;50.60;;;;;;5031556;28;20911;-67
2023/02/21 12:40:01;;;;;;;4.50;2.07;;;18.60;50.60;;;;;;5031656;28;20465;-67
2023/02/21 12:43:23;;;;;;;3.93;2.17;;;18.50;50.50;;;;;;5031651;28;20467;-66
2023/02/21 12:46:03;;;;;;;5.53;1.97;;;18.50;51.00;;;;;;5015639;28;20469;-66
2023/02/21 12:48:32;;;;;;;4.07;2.00;;;18.40;50.50;;;;;;5031159;28;20403;-66
2023/02/21 12:51:03;;;;;;;4.20;3.70;;;18.40;50.50;;;;;;5031103;28;20427;-67
2023/02/21 12:53:57;;;;;;;5.73;2.00;;;18.40;50.60;;;;;;5031821;28;20407;-66
2023/02/21 12:56:27;;;;;;;5.83;2.13;;;18.40;50.60;;;;;;5031567;28;20460;-66
2023/02/21 12:58:58;;;;;;;2.27;2.07;;;18.30;50.60;;;;;;5029603;28;20426;-66
2023/02/21 13:01:28;;;;;;;2.90;1.90;;;18.30;50.70;;;;;;5030737;28;20813;-66
2023/02/21 13:04:09;;;;;;;5.50;3.40;;;18.30;50.70;;;;;;5031063;28;20498;-66
2023/02/21 13:06:54;;;;;;;2.77;1.70;;;18.30;50.70;;;;;;5029685;28;21005;-67
2023/02/21 13:09:48;;;;;;;2.10;1.57;;;18.30;50.70;;;;;;5031345;28;20402;-67
2023/02/21 13:12:23;;;;;;;4.90;2.10;;;18.30;50.70;;;;;;5030739;28;20452;-66
2023/02/21 13:15:14;;;;;;;3.00;1.80;;;18.30;50.70;;;;;;5031252;28;20402;-69
2023/02/21 13:17:42;;;;;;;3.07;1.97;;;18.30;50.70;;;;;;5031255;28;20498;-67
2023/02/21 13:20:16;;;;;;;2.83;1.40;;;18.40;50.80;;;;;;5030907;28;20414;-67
2023/02/21 13:26:22;;;;;;;4.50;2.40;;;18.50;50.70;;;;;;5030817;28;20453;-66
2023/02/21 13:28:56;;;;;;;5.17;2.30;;;18.50;50.60;;;;;;5029403;28;20414;-66
2023/02/21 13:31:27;;;;;;;3.00;1.77;;;18.50;50.50;;;;;;5030670;28;20472;-66
2023/02/21 13:34:04;;;;;;;6.13;1.77;;;18.60;50.60;;;;;;5029506;28;20505;-67
2023/02/21 13:36:42;;;;;;;3.17;1.90;;;18.60;50.60;;;;;;5030967;28;20497;-67
2023/02/21 13:39:07;;;;;;;3.43;1.50;;;18.60;50.60;;;;;;5030768;28;20403;-66
2023/02/21 13:41:52;;;;;;;3.40;1.87;;;18.60;50.60;;;;;;5030467;28;20517;-67
2023/02/21 13:44:28;;;;;;;2.30;1.70;;;18.70;50.60;;;;;;5030663;28;20172;-67
2023/02/21 13:47:05;;;;;;;3.93;2.20;;;18.70;50.60;;;;;;5030553;28;20446;-67
2023/02/21 13:49:43;;;;;;;2.80;2.00;;;18.80;50.70;;;;;;5030395;28;20459;-66
2023/02/21 13:52:33;;;;;;;3.77;1.97;;;18.80;50.50;;;;;;5030446;28;20431;-67
2023/02/21 13:55:16;;;;;;;2.83;1.63;;;18.80;50.50;;;;;;5030622;28;20459;-67
2023/02/21 13:57:44;;;;;;;2.20;1.67;;;18.90;50.50;;;;;;5031287;28;20410;-66
2023/02/21 14:00:24;;;;;;;4.17;2.53;;;18.90;50.50;;;;;;5037288;28;20422;-66
2023/02/21 14:03:17;;;;;;;2.70;1.67;;;18.90;50.40;;;;;;5037144;28;20421;-67
2023/02/21 14:05:45;;;;;;;3.67;2.10;;;18.90;50.40;;;;;;5037021;28;20446;-66
2023/02/21 14:08:33;;;;;;;1.87;1.67;;;18.90;50.30;;;;;;5036778;28;20425;-67
2023/02/21 14:11:04;;;;;;;1.83;1.60;;;18.90;50.30;;;;;;5036858;28;21011;-66
2023/02/21 14:13:57;;;;;;;2.73;1.97;;;18.90;50.30;;;;;;5037056;28;20887;-66
2023/02/21 14:16:28;;;;;;;2.50;2.00;;;18.90;50.30;;;;;;5036677;28;20403;-66
2023/02/21 14:19:24;;;;;;;3.17;1.80;;;18.90;50.30;;;;;;5036717;28;20763;-67
2023/02/21 14:22:09;;;;;;;1.87;1.43;;;18.90;50.30;;;;;;5022235;28;20426;-66
2023/02/21 14:24:38;;;;;;;2.30;1.50;;;18.80;50.30;;;;;;5036837;28;20402;-67
2023/02/21 14:27:26;;;;;;;1.90;1.60;;;18.80;50.30;;;;;;5036508;28;20462;-67
2023/02/21 14:30:00;;;;;;;2.90;1.70;;;18.80;50.40;;;;;;5036580;28;20411;-66
2023/02/21 14:32:40;;;;;;;2.43;1.57;;;18.80;50.40;;;;;;5036869;28;20405;-67
2023/02/21 14:35:24;;;;;;;5.20;1.80;;;18.80;50.30;;;;;;5036619;28;20398;-66
2023/02/21 14:38:07;;;;;;;2.80;1.60;;;18.80;50.30;;;;;;5036442;28;20770;-67
2023/02/21 14:40:53;;;;;;;2.00;1.43;;;18.70;50.30;;;;;;5036985;28;20430;-72
2023/02/21 14:43:40;;;;;;;3.40;1.97;;;18.70;50.30;;;;;;5037084;28;20861;-71
2023/02/21 14:46:43;;;;;;;3.67;1.97;;;18.70;50.40;;;;;;5037242;28;20848;-70
2023/02/21 14:49:26;;;;;;;3.43;2.13;;;18.70;50.40;;;;;;5037181;28;20428;-72
2023/02/21 14:52:06;;;;;;;3.50;2.27;;;18.70;50.40;;;;;;5036883;28;20567;-72
2023/02/21 14:55:09;;;;;;;2.10;1.80;;;18.60;50.40;;;;;;5037135;28;20894;-71
2023/02/21 14:57:41;;;;;;;5.00;1.67;;;18.60;50.40;;;;;;5036706;28;20414;-66
2023/02/21 15:00:10;;;;;;;2.00;1.30;;;18.60;50.50;;;;;;5036179;28;20467;-65
2023/02/21 15:02:52;;;;;;;1.93;1.60;;;18.50;50.40;;;;;;5036308;28;20908;-65
2023/02/21 15:05:36;;;;;;;3.10;1.80;;;18.50;50.40;;;;;;5036553;28;20892;-66
2023/02/21 15:08:19;;;;;;;2.40;1.60;;;18.50;50.50;;;;;;5036394;28;20437;-66
2023/02/21 15:10:50;;;;;;;4.50;1.50;;;18.50;50.50;;;;;;5033149;28;20425;-66
2023/02/21 15:13:29;;;;;;;2.23;1.70;;;18.40;50.50;;;;;;5032923;28;20406;-66
2023/02/21 15:16:15;;;;;;;2.67;1.50;;;18.40;50.50;;;;;;5032959;28;20774;-67
2023/02/21 15:19:01;;;;;;;3.00;1.40;;;18.40;50.50;;;;;;5033030;28;20398;-67
2023/02/21 15:21:27;;;;;;;2.80;1.73;;;18.40;50.50;;;;;;5032557;28;20483;-67
2023/02/21 15:24:14;;;;;;;2.90;1.50;;;18.40;50.50;;;;;;5032900;28;20414;-67
2023/02/21 15:26:40;;;;;;;2.33;1.40;;;18.40;50.50;;;;;;5032695;28;20445;-67
2023/02/21 15:29:05;;;;;;;2.73;1.90;;;18.40;50.50;;;;;;5032701;28;20434;-67
2023/02/21 15:31:39;;;;;;;4.33;1.70;;;18.40;50.60;;;;;;5032544;28;20430;-67